Time;durP1;ratioP1;P1;durP2;ratioP2;P2;SDS_P1;SDS_P2;PMS_P1;PMS_P2;Temp;Humidity;BMP_temperature;BMP_pressure;BME280_temperature;BME280_humidity;BME280_pressure;Samples;Min_cycle;Max_cycle;Signal;HPM_P1;HPM_P2
2021/05/08 00:00:40;;;;;;;12.17;5.20;;;;;;;7.18;61.91;100324.22;5060812;27;99347;-70
2021/05/08 00:03:05;;;;;;;9.13;4.73;;;;;;;7.14;62.17;100327.78;5079268;27;96529;-73
2021/05/08 00:05:31;;;;;;;6.27;4.03;;;;;;;7.14;62.34;100333.00;5098029;27;96748;-73
2021/05/08 00:07:57;;;;;;;7.80;3.93;;;;;;;7.11;62.32;100327.00;5078101;27;97898;-73
2021/05/08 00:10:23;;;;;;;6.60;3.73;;;;;;;7.05;62.56;100327.13;5061320;27;101771;-72
2021/05/08 00:12:49;;;;;;;7.43;4.37;;;;;;;7.05;62.31;100337.56;5077783;27;97086;-72
2021/05/08 00:15:16;;;;;;;8.93;4.00;;;;;;;7.07;62.53;100338.38;5061622;27;97095;-72
2021/05/08 00:17:42;;;;;;;8.07;4.77;;;;;;;7.04;62.32;100334.09;5077709;27;101479;-69
2021/05/08 00:20:12;;;;;;;6.80;4.03;;;;;;;7.01;62.51;100337.63;5096830;27;99864;-72
2021/05/08 00:22:37;;;;;;;4.90;3.40;;;;;;;7.03;62.34;100338.41;5078118;27;96726;-72
2021/05/08 00:25:05;;;;;;;5.37;3.70;;;;;;;6.97;62.32;100345.53;5078206;27;96786;-72
2021/05/08 00:27:30;;;;;;;6.63;3.97;;;;;;;6.99;62.16;100351.56;5061072;27;98086;-72
2021/05/08 00:29:56;;;;;;;6.63;3.90;;;;;;;6.98;62.33;100347.22;5060609;27;98800;-72
2021/05/08 00:32:21;;;;;;;6.10;3.60;;;;;;;6.92;62.44;100353.44;5078650;27;96567;-73
2021/05/08 00:34:47;;;;;;;6.03;3.73;;;;;;;6.90;62.30;100351.75;5060571;27;96923;-72
2021/05/08 00:37:12;;;;;;;5.33;3.43;;;;;;;6.93;62.42;100349.09;5060446;27;98069;-72
2021/05/08 00:39:38;;;;;;;6.63;4.10;;;;;;;6.96;62.30;100354.25;5042796;27;101551;-72
2021/05/08 00:42:04;;;;;;;5.13;3.40;;;;;;;6.93;62.59;100355.16;5046641;27;101630;-72
2021/05/08 00:44:30;;;;;;;5.97;3.83;;;;;;;6.93;62.18;100359.53;5057808;27;96507;-72
2021/05/08 00:46:55;;;;;;;8.70;3.67;;;;;;;6.96;62.19;100368.16;5057046;27;98052;-74
2021/05/08 00:49:26;;;;;;;5.50;3.50;;;;;;;6.96;61.85;100362.94;5024188;27;101869;-72
2021/05/08 00:51:51;;;;;;;5.30;3.60;;;;;;;6.96;62.07;100362.06;5040235;27;97149;-72
2021/05/08 00:54:17;;;;;;;5.40;3.10;;;;;;;6.94;62.11;100350.78;5076621;27;96796;-72
2021/05/08 00:56:43;;;;;;;4.43;3.50;;;;;;;6.91;62.07;100364.75;5039753;27;101222;-70
2021/05/08 00:59:09;;;;;;;6.27;3.67;;;;;;;6.93;61.98;100365.59;5040311;27;101573;-72
2021/05/08 01:01:35;;;;;;;4.33;3.30;;;;;;;6.89;62.08;100363.06;5075539;27;96598;-72
2021/05/08 01:04:01;;;;;;;8.47;4.50;;;;;;;6.90;62.00;100370.03;5073667;27;97025;-72
2021/05/08 01:06:27;;;;;;;5.90;4.10;;;;;;;6.91;61.78;100369.13;5040115;27;100820;-72
2021/05/08 01:08:53;;;;;;;6.63;4.00;;;;;;;6.88;62.00;100363.97;5056607;27;97915;-72
2021/05/08 01:11:19;;;;;;;6.93;3.60;;;;;;;6.87;62.50;100372.69;5040084;27;96740;-72
2021/05/08 01:13:45;;;;;;;6.57;4.13;;;;;;;6.83;61.98;100371.84;5056756;27;97254;-70
2021/05/08 01:16:11;;;;;;;6.03;3.70;;;;;;;6.80;62.37;100372.78;5040166;27;99669;-72
2021/05/08 01:18:37;;;;;;;7.60;4.00;;;;;;;6.78;62.00;100371.97;5057303;27;97855;-72
2021/05/08 01:21:03;;;;;;;6.43;4.10;;;;;;;6.67;62.33;100368.66;5056685;27;96624;-72
2021/05/08 01:23:29;;;;;;;8.50;4.47;;;;;;;6.68;62.25;100372.13;5040587;27;96769;-72
2021/05/08 01:25:56;;;;;;;6.30;4.50;;;;;;;6.59;62.41;100365.31;5038708;27;100970;-72
2021/05/08 01:28:22;;;;;;;7.90;6.43;;;;;;;6.58;62.75;100367.06;5040017;27;99629;-72
2021/05/08 01:30:47;;;;;;;12.70;9.50;;;;;;;6.58;62.28;100371.44;5039198;27;96579;-74
2021/05/08 01:33:15;;;;;;;8.70;3.90;;;;;;;6.54;62.42;100364.53;5057529;27;96841;-74
2021/05/08 01:35:42;;;;;;;8.00;3.90;;;;;;;6.56;62.04;100373.22;5057070;27;97999;-75
2021/05/08 01:38:08;;;;;;;5.27;3.00;;;;;;;6.47;62.26;100371.63;5056280;27;98032;-74
2021/05/08 01:40:36;;;;;;;4.60;3.00;;;;;;;6.49;62.63;100382.03;5057586;27;97271;-74
2021/05/08 01:43:05;;;;;;;4.90;3.30;;;;;;;6.44;62.46;100387.31;5095779;27;97005;-74
2021/05/08 01:45:31;;;;;;;5.20;3.17;;;;;;;6.44;62.48;100382.09;5077114;27;99694;-74
2021/05/08 01:48:01;;;;;;;6.00;3.77;;;;;;;6.45;62.10;100385.56;5059303;27;99934;-74
2021/05/08 01:50:28;;;;;;;10.23;4.73;;;;;;;6.46;62.20;100382.94;5042920;27;96579;-75
2021/05/08 01:52:55;;;;;;;8.10;4.20;;;;;;;6.41;62.56;100386.50;5059120;27;96954;-74
2021/05/08 01:55:26;;;;;;;9.30;3.90;;;;;;;6.47;62.25;100395.09;5059788;27;101025;-74
2021/05/08 01:57:54;;;;;;;6.93;4.40;;;;;;;6.40;62.86;100393.47;5042048;27;99131;-74
2021/05/08 02:00:27;;;;;;;7.60;4.13;;;;;;;6.43;62.26;100397.75;5059897;27;97013;-74
2021/05/08 02:02:54;;;;;;;6.70;4.22;;;;;;;6.39;62.31;100393.47;5094736;27;96816;-72
2021/05/08 02:05:28;;;;;;;7.00;3.90;;;;;;;6.40;62.32;100396.06;5078148;27;98481;-73
2021/05/08 02:08:01;;;;;;;7.10;3.93;;;;;;;6.38;62.04;100382.19;5059622;27;100085;-72
2021/05/08 02:10:27;;;;;;;6.87;4.17;;;;;;;6.39;62.44;100385.66;5077370;27;96622;-72
2021/05/08 02:12:53;;;;;;;5.47;3.73;;;;;;;6.37;62.46;100396.13;5059057;27;96839;-72
2021/05/08 02:15:19;;;;;;;7.67;4.00;;;;;;;6.37;61.86;100401.34;5041930;27;100918;-72
2021/05/08 02:17:45;;;;;;;5.33;3.80;;;;;;;6.38;61.70;100402.19;5059348;27;101296;-72
2021/05/08 02:20:17;;;;;;;7.10;4.20;;;;;;;6.33;62.39;100389.22;5076126;27;96771;-72
2021/05/08 02:22:43;;;;;;;7.05;4.65;;;;;;;6.33;61.89;100395.28;5060195;27;96891;-72
2021/05/08 02:25:11;;;;;;;6.80;3.87;;;;;;;6.28;62.56;100401.47;5058730;27;98172;-72
2021/05/08 02:27:39;;;;;;;7.23;4.13;;;;;;;6.28;62.27;100396.25;5059404;27;101139;-73
2021/05/08 02:30:07;;;;;;;8.40;4.30;;;;;;;6.26;62.16;100401.50;5042345;27;96987;-72
2021/05/08 02:32:33;;;;;;;11.10;4.77;;;;;;;6.26;62.75;100400.63;5042771;27;96861;-72
2021/05/08 02:35:00;;;;;;;8.47;4.50;;;;;;;6.27;62.57;100405.81;5075283;27;100954;-72
2021/05/08 02:37:26;;;;;;;7.23;4.87;;;;;;;6.26;62.45;100413.69;5041964;27;100385;-72
2021/05/08 02:39:51;;;;;;;9.80;4.90;;;;;;;6.26;62.47;100411.06;5054453;27;96911;-70
2021/05/08 02:42:17;;;;;;;7.33;4.70;;;;;;;6.25;62.60;100406.72;5074165;27;96923;-72
2021/05/08 02:44:43;;;;;;;6.47;4.90;;;;;;;6.26;62.71;100413.69;5075244;27;99432;-72
2021/05/08 02:47:17;;;;;;;8.33;4.80;;;;;;;6.26;62.35;100416.28;5058024;27;100095;-72
2021/05/08 02:49:48;;;;;;;9.83;4.57;;;;;;;6.26;62.72;100427.56;5060543;27;97064;-72
2021/05/08 02:52:14;;;;;;;6.37;4.57;;;;;;;6.26;62.55;100419.75;5057602;27;96909;-72
2021/05/08 02:54:40;;;;;;;7.03;3.70;;;;;;;6.22;62.98;100418.06;5076137;27;97924;-72
2021/05/08 02:57:06;;;;;;;8.93;4.00;;;;;;;6.20;62.28;100418.97;5093893;27;99427;-72
2021/05/08 02:59:32;;;;;;;4.87;3.90;;;;;;;6.22;62.71;100422.41;5059074;27;96530;-72
2021/05/08 03:01:58;;;;;;;5.07;4.07;;;;;;;6.24;62.31;100420.66;5093765;27;96824;-72
2021/05/08 03:04:23;;;;;;;8.80;4.00;;;;;;;6.23;63.06;100421.53;5057426;27;100062;-72
2021/05/08 03:06:49;;;;;;;4.67;3.40;;;;;;;6.20;62.61;100421.59;5041417;27;100878;-72
2021/05/08 03:09:14;;;;;;;5.30;3.40;;;;;;;6.23;62.43;100422.41;5075226;27;96492;-73
2021/05/08 03:11:41;;;;;;;5.73;3.40;;;;;;;6.26;62.77;100421.50;5058885;27;96931;-73
2021/05/08 03:14:07;;;;;;;5.67;3.50;;;;;;;6.26;62.90;100430.16;5057783;27;99851;-72
2021/05/08 03:16:34;;;;;;;3.83;2.97;;;;;;;6.31;62.45;100430.97;5041519;27;101558;-73
2021/05/08 03:18:59;;;;;;;5.70;3.50;;;;;;;6.32;62.69;100426.63;5058333;27;96554;-72
2021/05/08 03:21:25;;;;;;;4.90;3.30;;;;;;;6.39;62.38;100433.44;5076244;27;96872;-73
2021/05/08 03:23:51;;;;;;;4.43;2.80;;;;;;;6.44;62.52;100430.78;5058553;27;101124;-73
2021/05/08 03:26:17;;;;;;;8.60;3.57;;;;;;;6.48;62.62;100432.44;5057785;27;101703;-73
2021/05/08 03:28:42;;;;;;;7.80;3.33;;;;;;;6.47;62.34;100433.34;5075261;27;97079;-73
2021/05/08 03:31:08;;;;;;;6.37;3.53;;;;;;;6.49;62.44;100437.66;5074811;27;97169;-73
2021/05/08 03:33:34;;;;;;;4.50;3.17;;;;;;;6.45;62.92;100435.97;5058374;27;102355;-73
2021/05/08 03:36:00;;;;;;;5.10;3.27;;;;;;;6.47;62.96;100444.63;5074935;27;98368;-73
2021/05/08 03:38:28;;;;;;;4.23;3.20;;;;;;;6.54;62.46;100440.16;5058972;27;96992;-73
2021/05/08 03:40:54;;;;;;;7.43;3.47;;;;;;;6.57;62.49;100445.34;5092325;27;98576;-70
2021/05/08 03:43:20;;;;;;;7.00;3.50;;;;;;;6.61;62.61;100446.19;5075349;27;98914;-74
2021/05/08 03:45:48;;;;;;;7.87;3.53;;;;;;;6.64;62.68;100451.34;5058912;27;97805;-73
2021/05/08 03:48:14;;;;;;;6.70;3.83;;;;;;;6.61;62.81;100449.63;5040730;27;96659;-73
2021/05/08 03:50:39;;;;;;;5.47;3.80;;;;;;;6.67;62.67;100446.06;5093823;27;96886;-72
2021/05/08 03:53:04;;;;;;;6.80;4.07;;;;;;;6.67;62.65;100452.16;5074158;27;98010;-72
2021/05/08 03:55:34;;;;;;;8.97;4.40;;;;;;;6.70;62.60;100451.25;5041091;27;100928;-73
2021/05/08 03:57:59;;;;;;;6.87;4.30;;;;;;;6.78;61.94;100459.81;5075254;27;96582;-72
2021/05/08 04:00:25;;;;;;;6.17;3.40;;;;;;;6.81;62.65;100454.53;5075560;27;96839;-73
2021/05/08 04:02:51;;;;;;;6.13;3.60;;;;;;;6.84;62.48;100464.94;5075274;27;98026;-73
2021/05/08 04:05:16;;;;;;;7.20;3.33;;;;;;;6.88;62.22;100463.97;5074439;27;97785;-73
2021/05/08 04:07:42;;;;;;;5.37;3.27;;;;;;;6.91;62.35;100460.47;5075233;27;96737;-73
2021/05/08 04:10:08;;;;;;;5.10;3.60;;;;;;;6.98;61.96;100462.94;5093518;27;96870;-73
2021/05/08 04:12:33;;;;;;;4.83;3.23;;;;;;;7.11;61.91;100463.59;5057711;27;100952;-73
2021/05/08 04:14:59;;;;;;;4.30;2.90;;;;;;;7.26;61.67;100462.44;5076526;27;97810;-70
2021/05/08 04:17:25;;;;;;;5.23;2.87;;;;;;;7.35;61.46;100464.03;5078147;27;96536;-73
2021/05/08 04:19:50;;;;;;;12.33;3.60;;;;;;;7.54;61.07;100475.88;5061453;27;96853;-74
2021/05/08 04:22:16;;;;;;;4.07;2.90;;;;;;;7.74;60.73;100459.81;5077905;27;98443;-73
2021/05/08 04:24:41;;;;;;;7.10;3.50;;;;;;;7.94;60.39;100468.09;5078595;27;98112;-73
2021/05/08 04:27:07;;;;;;;4.63;3.40;;;;;;;8.23;59.50;100482.31;5096399;27;97098;-73
2021/05/08 04:29:32;;;;;;;6.70;3.08;;;;;;;8.60;58.29;100484.13;5078892;27;96957;-73
2021/05/08 04:31:58;;;;;;;8.48;3.47;;;;;;;9.83;56.15;100484.44;5077183;27;100138;-70
2021/05/08 04:34:23;;;;;;;4.10;3.30;;;;;;;11.57;52.32;100483.25;5078133;27;99279;-73
2021/05/08 04:36:49;;;;;;;6.35;3.45;;;;;;;12.14;50.19;100478.59;5061242;27;96924;-73
2021/05/08 04:39:14;;;;;;;9.32;4.35;;;;;;;14.81;45.06;100482.91;5077871;27;97169;-72
2021/05/08 04:41:40;;;;;;;5.40;3.55;;;;;;;16.22;42.43;100480.03;5077464;27;98059;-73
2021/05/08 04:44:06;;;;;;;5.05;3.50;;;;;;;17.15;41.12;100493.31;5077115;27;99340;-73
2021/05/08 04:46:32;;;;;;;6.05;3.38;;;;;;;17.78;39.64;100478.09;5061534;27;97234;-73
2021/05/08 04:48:57;;;;;;;5.00;3.50;;;;;;;18.44;38.29;100482.78;5078627;27;96782;-73
2021/05/08 04:51:23;;;;;;;7.07;3.78;;;;;;;18.94;37.50;100480.47;5077025;27;98338;-73
2021/05/08 04:53:49;;;;;;;4.68;3.40;;;;;;;19.36;36.93;100478.53;5060761;27;101119;-74
2021/05/08 04:56:15;;;;;;;5.45;3.65;;;;;;;19.81;35.99;100482.53;5043091;27;96899;-73
2021/05/08 04:58:42;;;;;;;4.57;3.50;;;;;;;20.02;34.85;100484.63;5078334;27;97019;-71
2021/05/08 05:01:08;;;;;;;3.78;3.10;;;;;;;20.40;34.25;100478.38;5043058;27;100926;-71
2021/05/08 05:03:33;;;;;;;4.03;3.08;;;;;;;20.59;33.68;100476.06;5043591;27;101713;-71
2021/05/08 05:05:59;;;;;;;6.85;3.20;;;;;;;20.99;33.52;100497.97;5077680;27;96649;-72
2021/05/08 05:08:25;;;;;;;4.22;2.90;;;;;;;21.41;32.90;100484.19;5077130;27;97031;-72
2021/05/08 05:10:51;;;;;;;6.93;3.45;;;;;;;21.89;32.50;100486.69;5077546;27;98692;-72
2021/05/08 05:13:17;;;;;;;3.38;2.80;;;;;;;22.22;31.94;100488.53;5077051;27;97514;-71
2021/05/08 05:15:42;;;;;;;4.60;2.80;;;;;;;22.55;31.21;100476.09;5078199;27;96554;-72
2021/05/08 05:18:08;;;;;;;3.60;2.83;;;;;;;22.78;31.05;100487.59;5077245;27;96787;-72
2021/05/08 05:20:33;;;;;;;4.95;3.25;;;;;;;23.08;30.52;100486.91;5060074;27;97916;-72
2021/05/08 05:22:59;;;;;;;5.88;3.50;;;;;;;23.31;30.16;100474.25;5077925;27;97950;-72
2021/05/08 05:25:24;;;;;;;7.10;3.60;;;;;;;23.57;29.63;100484.56;5076721;27;96572;-72
2021/05/08 05:27:50;;;;;;;6.05;3.47;;;;;;;24.05;29.35;100481.28;5095999;27;96849;-72
2021/05/08 05:30:16;;;;;;;4.80;3.33;;;;;;;24.59;28.83;100486.28;5094674;27;98281;-72
2021/05/08 05:32:41;;;;;;;6.57;3.17;;;;;;;25.00;28.14;100491.56;5060094;27;101269;-72
2021/05/08 05:35:07;;;;;;;4.55;3.05;;;;;;;25.17;27.99;100492.72;5059580;27;96708;-71
2021/05/08 05:37:33;;;;;;;5.75;3.17;;;;;;;25.39;27.81;100497.75;5095606;27;96936;-72
2021/05/08 05:39:58;;;;;;;6.13;3.83;;;;;;;25.43;26.69;100507.25;5095725;27;97541;-72
2021/05/08 05:42:24;;;;;;;6.22;3.17;;;;;;;25.72;26.29;100509.88;5075962;27;97877;-72
2021/05/08 05:44:50;;;;;;;4.07;3.00;;;;;;;26.19;26.36;100509.03;5077520;27;96599;-72
2021/05/08 05:47:21;;;;;;;6.00;3.53;;;;;;;26.53;25.88;100506.63;5077076;27;96914;-72
2021/05/08 05:49:52;;;;;;;5.20;3.20;;;;;;;26.86;25.77;100506.97;5043835;27;99751;-72
2021/05/08 05:52:18;;;;;;;3.58;2.75;;;;;;;27.34;25.16;100511.09;5094477;27;99744;-73
2021/05/08 05:54:48;;;;;;;4.70;3.10;;;;;;;27.62;24.75;100514.53;5076886;27;96645;-72
2021/05/08 05:57:14;;;;;;;3.78;2.58;;;;;;;28.08;24.45;100523.28;5059311;27;96769;-72
2021/05/08 05:59:41;;;;;;;3.15;2.42;;;;;;;28.25;23.62;100504.47;5077141;27;98120;-73
2021/05/08 06:02:07;;;;;;;2.92;2.25;;;;;;;28.40;24.09;100495.56;5076541;27;98076;-72
2021/05/08 06:04:33;;;;;;;2.70;2.40;;;;;;;28.64;23.76;100504.78;5095762;27;96724;-72
2021/05/08 06:06:59;;;;;;;3.35;2.50;;;;;;;28.97;23.11;100510.22;5076875;27;97196;-75
2021/05/08 06:09:26;;;;;;;3.00;2.55;;;;;;;29.49;22.83;100515.34;5076312;27;98444;-75
2021/05/08 06:11:56;;;;;;;4.82;2.85;;;;;;;29.89;22.49;100508.22;5076672;27;97960;-75
2021/05/08 06:14:22;;;;;;;5.53;2.83;;;;;;;29.87;21.92;100521.91;5059117;27;97063;-75
2021/05/08 06:16:48;;;;;;;3.72;2.92;;;;;;;29.71;22.12;100522.78;5076883;27;97002;-75
2021/05/08 06:19:14;;;;;;;4.80;2.80;;;;;;;30.57;21.73;100521.16;5093755;27;98425;-74
2021/05/08 06:21:40;;;;;;;7.03;2.95;;;;;;;30.80;21.29;100517.66;5076698;27;97764;-74
2021/05/08 06:24:09;;;;;;;3.60;2.60;;;;;;;29.58;22.02;100527.00;5059822;27;96610;-73
2021/05/08 06:26:35;;;;;;;3.55;2.33;;;;;;;27.98;23.50;100518.00;5059619;27;96806;-74
2021/05/08 06:29:02;;;;;;;3.05;2.53;;;;;;;27.16;24.71;100515.69;5094885;27;98116;-74
2021/05/08 06:31:28;;;;;;;3.72;2.60;;;;;;;29.62;22.45;100514.84;5075598;27;97806;-74
2021/05/08 06:33:54;;;;;;;5.35;2.47;;;;;;;29.64;22.27;100524.50;5076875;27;96539;-75
2021/05/08 06:36:20;;;;;;;3.33;2.22;;;;;;;30.52;21.75;100518.16;5075908;27;96866;-74
2021/05/08 06:38:45;;;;;;;3.97;2.70;;;;;;;30.93;21.23;100528.78;5057865;27;99069;-74
2021/05/08 06:41:11;;;;;;;3.83;2.55;;;;;;;31.02;21.21;100532.28;5057850;27;99078;-72
2021/05/08 06:43:36;;;;;;;4.28;2.65;;;;;;;29.93;22.71;100534.75;5076351;27;96583;-74
2021/05/08 06:46:02;;;;;;;4.15;2.92;;;;;;;29.96;22.13;100530.84;5076669;27;96971;-74
2021/05/08 06:48:27;;;;;;;7.15;2.33;;;;;;;29.61;22.49;100523.94;5058535;27;98622;-74
2021/05/08 06:50:53;;;;;;;4.85;2.55;;;;;;;29.49;22.50;100523.47;5075943;27;97818;-74
2021/05/08 06:53:18;;;;;;;3.45;2.58;;;;;;;31.04;21.47;100531.06;5075600;27;97093;-74
2021/05/08 06:55:44;;;;;;;3.65;2.50;;;;;;;31.70;20.72;100534.06;5059249;27;96962;-75
2021/05/08 06:58:10;;;;;;;2.65;2.40;;;;;;;30.60;21.50;100533.50;5075475;27;98018;-73
2021/05/08 07:00:35;;;;;;;2.85;2.55;;;;;;;31.84;20.63;100534.28;5075832;27;97957;-74
2021/05/08 07:03:01;;;;;;;3.00;2.72;;;;;;;32.40;20.04;100535.50;5075872;27;96764;-74
2021/05/08 07:05:28;;;;;;;3.85;2.53;;;;;;;32.80;19.60;100532.47;5075533;27;97071;-74
2021/05/08 07:08:05;;;;;;;3.75;2.53;;;;;;;32.87;19.60;100536.94;5058367;27;101357;-75
2021/05/08 07:10:31;;;;;;;4.57;2.67;;;;;;;32.39;19.87;100531.13;5058094;27;99296;-74
2021/05/08 07:12:56;;;;;;;3.55;2.45;;;;;;;33.49;19.30;100529.19;5059086;27;96602;-75
2021/05/08 07:15:22;;;;;;;3.30;2.97;;;;;;;33.86;18.87;100533.47;5093759;27;96752;-75
2021/05/08 07:18:04;;;;;;;3.72;3.25;;;;;;;34.17;18.21;100541.19;5075834;27;97920;-75
2021/05/08 07:20:30;;;;;;;4.93;2.63;;;;;;;34.22;18.67;100536.00;5040656;27;101113;-74
2021/05/08 07:22:56;;;;;;;6.35;5.72;;;;;;;35.02;18.09;100527.25;5058825;27;96518;-75
2021/05/08 07:25:22;;;;;;;3.67;2.42;;;;;;;35.11;18.27;100528.75;5075497;27;96754;-74
2021/05/08 07:27:47;;;;;;;5.50;2.67;;;;;;;35.65;17.75;100526.94;5058399;27;101082;-75
2021/05/08 07:30:14;;;;;;;3.78;2.45;;;;;;;34.53;18.23;100520.19;5075126;27;97756;-72
2021/05/08 07:32:39;;;;;;;6.45;4.32;;;;;;;35.05;17.45;100526.88;5074927;27;96662;-74
2021/05/08 07:35:06;;;;;;;3.88;2.40;;;;;;;35.36;17.36;100523.53;5076152;27;96868;-74
2021/05/08 07:37:32;;;;;;;2.67;2.40;;;;;;;35.35;17.81;100517.25;5057504;27;98666;-74
2021/05/08 07:39:57;;;;;;;3.53;2.60;;;;;;;35.35;17.98;100524.59;5075622;27;97784;-75
2021/05/08 07:42:23;;;;;;;2.95;2.30;;;;;;;35.93;17.19;100532.97;5074457;27;96983;-74
2021/05/08 07:44:48;;;;;;;4.80;2.80;;;;;;;35.69;16.95;100530.91;5075946;27;96944;-75
2021/05/08 07:47:14;;;;;;;4.55;2.90;;;;;;;33.06;18.95;100531.94;5064414;27;98056;-72
2021/05/08 07:49:40;;;;;;;3.30;2.67;;;;;;;33.81;18.27;100534.06;5077446;27;97956;-74
2021/05/08 07:52:06;;;;;;;3.58;2.70;;;;;;;34.68;17.94;100529.94;5057664;27;97001;-74
2021/05/08 07:54:32;;;;;;;3.45;2.83;;;;;;;35.79;17.33;100526.69;5057843;27;97602;-74
2021/05/08 07:56:57;;;;;;;5.30;2.28;;;;;;;32.79;19.07;100530.78;5040260;27;97946;-74
2021/05/08 07:59:23;;;;;;;2.60;2.30;;;;;;;33.22;19.04;100534.41;5057041;27;97901;-74
2021/05/08 08:01:49;;;;;;;3.22;2.50;;;;;;;32.06;19.69;100530.69;5058355;27;97048;-75
2021/05/08 08:04:14;;;;;;;3.70;2.08;;;;;;;32.99;19.52;100537.31;5063101;27;97216;-72
2021/05/08 08:06:40;;;;;;;2.72;1.90;;;;;;;33.52;18.81;100535.09;5075621;27;99683;-74
2021/05/08 08:09:06;;;;;;;2.78;2.30;;;;;;;32.55;19.37;100542.81;5046760;27;97971;-74
2021/05/08 08:11:31;;;;;;;3.15;2.30;;;;;;;33.70;18.44;100539.19;5070270;27;97260;-75
2021/05/08 08:13:57;;;;;;;11.57;2.78;;;;;;;34.41;17.89;100539.88;5061302;27;96909;-75
2021/05/08 08:16:23;;;;;;;4.38;2.40;;;;;;;34.63;17.59;100537.88;5095565;27;97978;-74
2021/05/08 08:18:49;;;;;;;4.28;2.22;;;;;;;34.52;17.57;100545.75;5060708;27;99756;-74
2021/05/08 08:21:15;;;;;;;2.92;2.22;;;;;;;33.82;17.31;100545.78;5077071;27;96923;-72
2021/05/08 08:23:40;;;;;;;4.30;1.88;;;;;;;31.91;18.80;100546.09;5096543;27;96827;-74
2021/05/08 08:26:06;;;;;;;7.88;2.78;;;;;;;29.57;20.59;100550.50;5096264;27;98151;-74
2021/05/08 08:28:32;;;;;;;2.15;1.90;;;;;;;28.67;21.48;100550.34;5077140;27;97848;-74
2021/05/08 08:30:57;;;;;;;2.47;2.28;;;;;;;29.59;20.35;100551.19;5096491;27;96814;-74
2021/05/08 08:33:23;;;;;;;5.43;2.40;;;;;;;29.47;20.49;100552.53;5077184;27;97039;-74
2021/05/08 08:35:48;;;;;;;3.50;1.85;;;;;;;30.21;19.84;100561.44;5077480;27;99129;-74
2021/05/08 08:38:15;;;;;;;5.55;2.25;;;;;;;30.79;19.87;100545.78;5077513;27;97813;-73
2021/05/08 08:40:40;;;;;;;3.60;2.60;;;;;;;29.24;21.09;100542.41;5056140;27;96825;-74
2021/05/08 08:43:06;;;;;;;4.65;3.30;;;;;;;28.10;22.12;100544.69;5057661;27;96684;-74
2021/05/08 08:45:32;;;;;;;2.33;2.13;;;;;;;27.18;21.89;100538.78;5056226;27;98010;-75
2021/05/08 08:47:58;;;;;;;2.97;2.30;;;;;;;27.93;21.85;100541.91;5057094;27;97846;-75
2021/05/08 08:50:24;;;;;;;4.82;1.98;;;;;;;29.21;21.03;100545.44;5056624;27;97281;-75
2021/05/08 08:52:50;;;;;;;3.53;2.28;;;;;;;28.61;21.15;100545.63;5040697;27;97068;-75
2021/05/08 08:55:15;;;;;;;3.13;2.28;;;;;;;28.96;21.42;100546.38;5040421;27;98164;-72
2021/05/08 08:57:44;;;;;;;10.85;3.47;;;;;;;29.48;21.17;100540.72;5075138;27;98440;-75
2021/05/08 09:00:13;;;;;;;3.78;2.10;;;;;;;29.42;21.56;100547.63;5057596;27;97398;-75
2021/05/08 09:02:40;;;;;;;4.75;2.17;;;;;;;28.53;22.03;100548.28;5039847;27;96854;-75
2021/05/08 09:05:07;;;;;;;6.40;2.08;;;;;;;27.99;21.63;100549.34;5075664;27;97443;-74
2021/05/08 09:07:35;;;;;;;6.53;2.10;;;;;;;25.82;23.06;100554.69;5056412;27;97445;-75
2021/05/08 09:10:01;;;;;;;3.58;2.50;;;;;;;24.88;23.11;100547.22;5039981;27;96650;-75
2021/05/08 09:12:28;;;;;;;5.18;2.15;;;;;;;24.50;24.34;100550.66;5039389;27;96983;-72
2021/05/08 09:14:54;;;;;;;3.45;2.20;;;;;;;24.33;24.39;100557.47;5040159;27;99778;-73
2021/05/08 09:17:27;;;;;;;2.80;2.08;;;;;;;23.89;25.05;100554.19;5056585;27;99510;-70
2021/05/08 09:19:57;;;;;;;5.82;2.15;;;;;;;23.59;25.87;100553.13;5040759;27;97014;-73
2021/05/08 09:22:40;;;;;;;4.32;2.40;;;;;;;23.52;25.72;100545.72;5039694;27;96812;-72
2021/05/08 09:25:16;;;;;;;4.38;2.28;;;;;;;23.73;26.05;100562.66;5039861;27;99679;-73
2021/05/08 09:27:41;;;;;;;4.90;2.40;;;;;;;23.64;25.60;100558.91;5039677;27;98687;-73
2021/05/08 09:30:08;;;;;;;5.10;3.38;;;;;;;23.87;25.87;100553.44;5075585;27;96914;-72
2021/05/08 09:32:39;;;;;;;5.68;2.95;;;;;;;23.59;26.59;100552.25;5055721;27;97330;-72
2021/05/08 09:35:10;;;;;;;5.63;3.10;;;;;;;23.59;26.40;100552.25;5056860;27;97849;-73
2021/05/08 09:37:36;;;;;;;;;;;;;;;23.53;25.90;100558.97;5039333;27;99434;-73
2021/05/08 09:40:25;;;;;;;3.65;3.28;;;;;;;22.86;26.77;100562.72;5040347;27;96638;-72
2021/05/08 09:42:57;;;;;;;8.30;3.13;;;;;;;22.66;26.53;100564.38;5056202;27;96998;-73
2021/05/08 09:45:23;;;;;;;5.18;4.00;;;;;;;22.70;26.64;100554.25;5073070;27;98198;-69
2021/05/08 09:47:50;;;;;;;5.60;3.33;;;;;;;22.08;27.25;100553.78;5073564;27;99558;-72
2021/05/08 09:50:23;;;;;;;7.63;6.82;;;;;;;21.78;27.55;100550.81;5073836;27;96990;-72
2021/05/08 09:52:52;;;;;;;5.25;2.95;;;;;;;21.75;27.65;100554.56;5074604;27;96596;-72
2021/05/08 09:55:20;;;;;;;4.80;2.78;;;;;;;21.66;28.86;100560.63;5056280;27;101689;-72
2021/05/08 09:57:55;;;;;;;4.13;3.20;;;;;;;22.03;27.76;100550.63;5055901;27;98601;-72
2021/05/08 10:00:29;;;;;;;5.07;3.58;;;;;;;21.46;27.56;100556.78;5055788;27;96704;-70
2021/05/08 10:03:07;;;;;;;3.95;3.13;;;;;;;21.32;27.90;100546.28;5073631;27;96882;-72
2021/05/08 10:05:34;;;;;;;5.70;3.60;;;;;;;20.99;26.51;100543.34;5055220;27;99442;-72
2021/05/08 10:08:00;;;;;;;4.55;3.00;;;;;;;21.12;27.14;100548.66;5056148;27;101276;-73
2021/05/08 10:10:26;;;;;;;4.95;3.42;;;;;;;20.73;26.85;100547.94;5055673;27;96571;-72
2021/05/08 10:12:52;;;;;;;5.60;3.17;;;;;;;20.98;27.67;100548.81;5055941;27;96864;-72
2021/05/08 10:15:18;;;;;;;5.03;3.10;;;;;;;20.86;27.68;100539.91;5056015;27;97585;-72
2021/05/08 10:17:46;;;;;;;4.90;3.13;;;;;;;21.05;27.52;100541.19;5055338;27;99807;-72
2021/05/08 10:20:16;;;;;;;4.75;3.17;;;;;;;21.00;27.06;100533.53;5073387;27;96952;-73
2021/05/08 10:22:59;;;;;;;3.47;3.15;;;;;;;20.87;28.01;100535.41;5072234;27;96948;-72
2021/05/08 10:25:28;;;;;;;4.00;3.00;;;;;;;20.67;27.00;100532.38;5055526;27;98042;-69
2021/05/08 10:27:53;;;;;;;5.68;3.67;;;;;;;20.57;26.95;100531.34;5072938;27;97922;-72
2021/05/08 10:30:24;;;;;;;4.13;3.55;;;;;;;20.49;27.14;100525.69;5056168;27;97166;-72
2021/05/08 10:32:50;;;;;;;4.80;3.60;;;;;;;20.03;27.92;100526.28;5073327;27;96591;-72
2021/05/08 10:35:22;;;;;;;3.95;2.85;;;;;;;20.16;28.40;100527.16;5055864;27;98036;-73
2021/05/08 10:38:23;;;;;;;5.43;3.17;;;;;;;20.41;27.83;100517.38;5072394;27;99590;-72
2021/05/08 10:41:01;;;;;;;3.90;3.50;;;;;;;20.02;27.71;100530.78;5073707;27;96860;-72
2021/05/08 10:43:38;;;;;;;5.40;3.80;;;;;;;20.04;27.85;100534.19;5055924;27;96732;-70
2021/05/08 10:46:04;;;;;;;4.95;3.60;;;;;;;19.86;28.07;100540.78;5055834;27;98067;-73
2021/05/08 10:48:30;;;;;;;7.25;3.55;;;;;;;19.92;28.66;100534.19;5054820;27;97827;-72
2021/05/08 10:50:58;;;;;;;4.85;3.50;;;;;;;20.11;29.17;100532.78;5038549;27;96947;-71
2021/05/08 10:53:40;;;;;;;7.45;3.92;;;;;;;19.99;29.24;100528.31;5055714;27;98386;-69
2021/05/08 10:56:06;;;;;;;5.97;4.00;;;;;;;19.89;28.04;100529.91;5055639;27;98212;-72
2021/05/08 10:58:33;;;;;;;5.50;3.95;;;;;;;19.59;28.29;100515.06;5073217;27;97534;-72
2021/05/08 11:01:07;;;;;;;5.43;4.00;;;;;;;19.61;27.92;100520.31;5038998;27;97210;-72
2021/05/08 11:03:39;;;;;;;4.60;3.30;;;;;;;19.57;29.96;100508.16;5021379;27;96750;-72
2021/05/08 11:06:10;;;;;;;7.50;4.65;;;;;;;19.55;30.59;100515.41;5055566;27;98025;-72
2021/05/08 11:08:36;;;;;;;4.90;3.85;;;;;;;19.40;30.72;100519.94;5054700;27;99162;-72
2021/05/08 11:11:06;;;;;;;4.85;3.58;;;;;;;19.55;29.63;100518.91;5038101;27;97111;-72
2021/05/08 11:13:41;;;;;;;4.53;3.83;;;;;;;19.54;28.86;100511.88;5054501;27;96856;-72
2021/05/08 11:16:09;;;;;;;6.75;3.65;;;;;;;19.44;29.39;100505.47;5054652;27;101417;-73
2021/05/08 11:18:40;;;;;;;4.53;3.80;;;;;;;19.56;28.55;100512.63;5072611;27;97379;-72
2021/05/08 11:21:12;;;;;;;5.82;3.70;;;;;;;19.39;28.82;100507.59;5039308;27;96591;-73
2021/05/08 11:23:51;;;;;;;4.78;4.28;;;;;;;19.48;27.45;100498.97;5073111;27;96735;-73
2021/05/08 11:29:01;;;;;;;5.85;3.72;;;;;;;19.06;28.49;100513.38;5076371;27;98013;-72